This is the latest recevied weather packets stored in our database for station/object N4BBA. If no packets are shown the sender has not sent any weather packets the latest 1 day(s).
| Time | Temp. | Humidity | Pressure | Rain* | Wind** | Luminosity | Snow |
|---|---|---|---|---|---|---|---|
| 1778029519 | 21.11° C | 62% | 1014.9 hPa | 0 mm | - | 0 W/m² | - |
| 1778029215 | 21.11° C | 62% | 1014.7 hPa | 0 mm | - | 0 W/m² | - |
| 1778028912 | 21.11° C | 62% | 1014.6 hPa | 0 mm | - | 0 W/m² | - |
| 1778028608 | 21.67° C | 61% | 1014.6 hPa | 0 mm | - | 0 W/m² | - |
| 1778028306 | 21.67° C | 61% | 1014.5 hPa | 0 mm | - | 0 W/m² | - |
| 1778027698 | 21.67° C | 60% | 1014.5 hPa | 0 mm | - | 0 W/m² | - |
| 1778027394 | 22.22° C | 59% | 1014.5 hPa | 0 mm | - | 0 W/m² | - |
| 1778027090 | 22.22° C | 58% | 1014.3 hPa | 0 mm | - | 0 W/m² | - |
| 1778026786 | 22.22° C | 58% | 1014.2 hPa | 0 mm | - | 0 W/m² | - |
| 1778026483 | 22.22° C | 57% | 1014.1 hPa | 0 mm | - | 1 W/m² | - |
| 1778024667 | 23.33° C | 55% | 1013.8 hPa | 0 mm | - | 16 W/m² | - |
| 1778023153 | 24.44° C | 52% | 1013.8 hPa | 0 mm | - | 48 W/m² | - |
| 1778022246 | 25° C | 50% | 1013.5 hPa | 0 mm | - | 80 W/m² | - |
| 1778018606 | 26.11° C | 47% | 1014 hPa | 0 mm | - | 215 W/m² | - |
| 1778017700 | 26.11° C | 48% | 1014 hPa | 0 mm | - | 138 W/m² | - |
| 1778017094 | 27.22° C | 46% | 1013.9 hPa | 0 mm | - | 139 W/m² | - |
| 1778016185 | 26.67° C | 45% | 1014.1 hPa | 0 mm | - | 403 W/m² | - |
| 1778015881 | 26.67° C | 45% | 1014 hPa | 0 mm | - | 398 W/m² | - |
| 1778015579 | 26.67° C | 45% | 1014 hPa | 0 mm | - | 411 W/m² | - |
| 1778014972 | 26.67° C | 46% | 1014.2 hPa | 0 mm | - | 447 W/m² | - |
| 1778014669 | 26.11° C | 46% | 1014.2 hPa | 0 mm | - | 468 W/m² | - |
| 1778012851 | 26.11° C | 47% | 1014.1 hPa | 0 mm | - | 375 W/m² | - |
| 1778012244 | 26.11° C | 47% | 1014.2 hPa | 0 mm | - | 189 W/m² | - |
| 1778011640 | 26.11° C | 46% | 1014.2 hPa | 0 mm | - | 226 W/m² | - |
| 1778009215 | 26.67° C | 45% | 1014.9 hPa | 0 mm | - | 834 W/m² | - |
* Rain latest hour (hover to see other rain measurements)
** Current wind speed in m/s (hover to see current wind gust speed)